Terminal Aerodrome Forecast
Issued by NWS

Home | Current Version | Previous Version | Text Only | Print | Product List | Glossary Off
Versions: 1 2 3 4 5 6 7 8 9 10 11 12 13 14 15 16 17 18

000
FTUS43 KABR 231738
TAFPIR
TAF
KPIR 231738Z 2318/2418 15012KT P6SM FEW250
     FM240000 13010KT P6SM BKN110
     FM240700 08008KT P6SM SHRA OVC025
     FM241200 03017G26KT 4SM SHRA OVC010=

USA.gov is the U.S. government's official web portal to all federal, state and local government web resources and services.